sensor_id;sensor_type;location;lat;lon;timestamp;temperature;humidity
20384;DHT22;46458;50.966;7.002;2022-07-18T00:02:25;21.30;98.90
20384;DHT22;46458;50.966;7.002;2022-07-18T00:04:51;21.40;98.70
20384;DHT22;46458;50.966;7.002;2022-07-18T00:07:18;21.30;99.90
20384;DHT22;46458;50.966;7.002;2022-07-18T00:09:44;21.40;99.50
20384;DHT22;46458;50.966;7.002;2022-07-18T00:12:10;21.30;99.50
20384;DHT22;46458;50.966;7.002;2022-07-18T00:14:39;21.30;99.10
20384;DHT22;46458;50.966;7.002;2022-07-18T00:17:05;21.30;99.80
20384;DHT22;46458;50.966;7.002;2022-07-18T00:19:31;21.30;99.90
20384;DHT22;46458;50.966;7.002;2022-07-18T00:21:57;21.30;99.60
20384;DHT22;46458;50.966;7.002;2022-07-18T00:24:23;21.20;99.90
20384;DHT22;46458;50.966;7.002;2022-07-18T00:26:48;21.20;99.90
20384;DHT22;46458;50.966;7.002;2022-07-18T00:29:14;21.20;99.90
20384;DHT22;46458;50.966;7.002;2022-07-18T00:31:40;21.20;99.90
20384;DHT22;46458;50.966;7.002;2022-07-18T00:34:06;21.20;99.90
20384;DHT22;46458;50.966;7.002;2022-07-18T00:36:31;21.20;99.90
20384;DHT22;46458;50.966;7.002;2022-07-18T00:38:57;21.10;99.90
20384;DHT22;46458;50.966;7.002;2022-07-18T00:41:23;21.10;99.90
20384;DHT22;46458;50.966;7.002;2022-07-18T00:43:49;21.10;99.90
20384;DHT22;46458;50.966;7.002;2022-07-18T00:46:15;21.10;99.90
20384;DHT22;46458;50.966;7.002;2022-07-18T00:48:42;21.10;99.90
20384;DHT22;46458;50.966;7.002;2022-07-18T00:51:08;21.00;99.90
20384;DHT22;46458;50.966;7.002;2022-07-18T00:53:36;21.00;99.90
20384;DHT22;46458;50.966;7.002;2022-07-18T00:56:03;21.00;99.90
20384;DHT22;46458;50.966;7.002;2022-07-18T00:58:29;21.00;99.90
20384;DHT22;46458;50.966;7.002;2022-07-18T01:00:56;21.00;99.90
20384;DHT22;46458;50.966;7.002;2022-07-18T01:03:43;21.00;99.90
20384;DHT22;46458;50.966;7.002;2022-07-18T01:06:09;20.90;99.90
20384;DHT22;46458;50.966;7.002;2022-07-18T01:08:35;20.90;99.90
20384;DHT22;46458;50.966;7.002;2022-07-18T01:11:01;20.90;99.90
20384;DHT22;46458;50.966;7.002;2022-07-18T01:13:26;20.80;99.90
20384;DHT22;46458;50.966;7.002;2022-07-18T01:15:52;20.80;99.90
20384;DHT22;46458;50.966;7.002;2022-07-18T01:18:18;20.80;99.90
20384;DHT22;46458;50.966;7.002;2022-07-18T01:20:43;20.80;99.90
20384;DHT22;46458;50.966;7.002;2022-07-18T01:23:09;20.80;99.90
20384;DHT22;46458;50.966;7.002;2022-07-18T01:25:35;20.70;99.90
20384;DHT22;46458;50.966;7.002;2022-07-18T01:28:00;20.70;99.90
20384;DHT22;46458;50.966;7.002;2022-07-18T01:30:26;20.70;99.90
20384;DHT22;46458;50.966;7.002;2022-07-18T01:32:56;20.70;99.90
20384;DHT22;46458;50.966;7.002;2022-07-18T01:35:22;20.60;99.90
20384;DHT22;46458;50.966;7.002;2022-07-18T01:37:51;20.80;99.90
20384;DHT22;46458;50.966;7.002;2022-07-18T01:40:17;20.60;99.90
20384;DHT22;46458;50.966;7.002;2022-07-18T01:42:45;20.60;99.90
20384;DHT22;46458;50.966;7.002;2022-07-18T01:45:11;20.50;99.90
20384;DHT22;46458;50.966;7.002;2022-07-18T01:47:37;20.60;99.90
20384;DHT22;46458;50.966;7.002;2022-07-18T01:50:03;20.40;99.90
20384;DHT22;46458;50.966;7.002;2022-07-18T01:52:32;20.50;99.90
20384;DHT22;46458;50.966;7.002;2022-07-18T01:54:57;20.40;99.90
20384;DHT22;46458;50.966;7.002;2022-07-18T01:57:26;20.40;99.90
20384;DHT22;46458;50.966;7.002;2022-07-18T01:59:51;20.40;99.90
20384;DHT22;46458;50.966;7.002;2022-07-18T02:02:17;20.40;99.90
20384;DHT22;46458;50.966;7.002;2022-07-18T02:04:42;20.30;99.90
20384;DHT22;46458;50.966;7.002;2022-07-18T02:07:37;20.30;99.90
20384;DHT22;46458;50.966;7.002;2022-07-18T02:10:11;20.30;99.90
20384;DHT22;46458;50.966;7.002;2022-07-18T02:12:38;20.30;99.90
20384;DHT22;46458;50.966;7.002;2022-07-18T02:15:05;20.20;99.90
20384;DHT22;46458;50.966;7.002;2022-07-18T02:17:31;20.20;99.90
20384;DHT22;46458;50.966;7.002;2022-07-18T02:19:57;20.20;99.90
20384;DHT22;46458;50.966;7.002;2022-07-18T02:22:22;20.10;99.90
20384;DHT22;46458;50.966;7.002;2022-07-18T02:24:53;20.10;99.90
20384;DHT22;46458;50.966;7.002;2022-07-18T02:27:19;20.10;99.90
20384;DHT22;46458;50.966;7.002;2022-07-18T02:29:45;20.00;99.90
20384;DHT22;46458;50.966;7.002;2022-07-18T02:32:11;20.00;99.90
20384;DHT22;46458;50.966;7.002;2022-07-18T02:34:37;20.00;99.90
20384;DHT22;46458;50.966;7.002;2022-07-18T02:37:03;19.90;99.90
20384;DHT22;46458;50.966;7.002;2022-07-18T02:39:29;19.90;99.90
20384;DHT22;46458;50.966;7.002;2022-07-18T02:42:00;19.80;99.90
20384;DHT22;46458;50.966;7.002;2022-07-18T02:44:26;19.80;99.90
20384;DHT22;46458;50.966;7.002;2022-07-18T02:46:52;19.80;99.90
20384;DHT22;46458;50.966;7.002;2022-07-18T02:49:18;19.90;99.90
20384;DHT22;46458;50.966;7.002;2022-07-18T02:51:57;19.80;99.90
20384;DHT22;46458;50.966;7.002;2022-07-18T02:54:26;19.80;99.90
20384;DHT22;46458;50.966;7.002;2022-07-18T02:56:53;19.70;99.90
20384;DHT22;46458;50.966;7.002;2022-07-18T02:59:18;19.70;99.90
20384;DHT22;46458;50.966;7.002;2022-07-18T03:01:44;19.60;99.90
20384;DHT22;46458;50.966;7.002;2022-07-18T03:04:12;19.60;99.90
20384;DHT22;46458;50.966;7.002;2022-07-18T03:06:38;19.60;99.90
20384;DHT22;46458;50.966;7.002;2022-07-18T03:09:04;19.50;99.90
20384;DHT22;46458;50.966;7.002;2022-07-18T03:11:30;19.50;99.90
20384;DHT22;46458;50.966;7.002;2022-07-18T03:13:56;19.40;99.90
20384;DHT22;46458;50.966;7.002;2022-07-18T03:16:21;19.40;99.90
20384;DHT22;46458;50.966;7.002;2022-07-18T03:18:47;19.40;99.90
20384;DHT22;46458;50.966;7.002;2022-07-18T03:21:12;19.40;99.90
20384;DHT22;46458;50.966;7.002;2022-07-18T03:23:38;19.30;99.90
20384;DHT22;46458;50.966;7.002;2022-07-18T03:26:04;19.30;99.90
20384;DHT22;46458;50.966;7.002;2022-07-18T03:28:29;19.20;99.90
20384;DHT22;46458;50.966;7.002;2022-07-18T03:30:55;19.30;99.90
20384;DHT22;46458;50.966;7.002;2022-07-18T03:33:27;19.20;99.90
20384;DHT22;46458;50.966;7.002;2022-07-18T03:35:52;18.80;99.90
20384;DHT22;46458;50.966;7.002;2022-07-18T03:38:18;19.20;99.90
20384;DHT22;46458;50.966;7.002;2022-07-18T03:40:44;19.30;99.90
20384;DHT22;46458;50.966;7.002;2022-07-18T03:43:09;19.40;99.90
20384;DHT22;46458;50.966;7.002;2022-07-18T03:45:38;19.20;99.90
20384;DHT22;46458;50.966;7.002;2022-07-18T03:48:04;19.20;99.90
20384;DHT22;46458;50.966;7.002;2022-07-18T03:50:30;19.20;99.90
20384;DHT22;46458;50.966;7.002;2022-07-18T03:52:55;19.20;99.90
20384;DHT22;46458;50.966;7.002;2022-07-18T03:55:21;19.20;99.90
20384;DHT22;46458;50.966;7.002;2022-07-18T03:57:47;19.20;99.90
20384;DHT22;46458;50.966;7.002;2022-07-18T04:00:15;19.20;99.90
20384;DHT22;46458;50.966;7.002;2022-07-18T04:02:43;19.20;99.90
20384;DHT22;46458;50.966;7.002;2022-07-18T04:05:10;19.10;99.90
20384;DHT22;46458;50.966;7.002;2022-07-18T04:07:36;19.10;99.90
20384;DHT22;46458;50.966;7.002;2022-07-18T04:10:03;19.00;99.90
20384;DHT22;46458;50.966;7.002;2022-07-18T04:12:29;19.00;99.90
20384;DHT22;46458;50.966;7.002;2022-07-18T04:14:55;19.00;99.90
20384;DHT22;46458;50.966;7.002;2022-07-18T04:17:21;19.00;99.90
20384;DHT22;46458;50.966;7.002;2022-07-18T04:19:50;18.90;99.90
20384;DHT22;46458;50.966;7.002;2022-07-18T04:22:16;18.90;99.90
20384;DHT22;46458;50.966;7.002;2022-07-18T04:24:42;18.90;99.90
20384;DHT22;46458;50.966;7.002;2022-07-18T04:27:07;18.90;99.90
20384;DHT22;46458;50.966;7.002;2022-07-18T04:29:33;19.00;99.90
20384;DHT22;46458;50.966;7.002;2022-07-18T04:32:01;18.90;99.90
20384;DHT22;46458;50.966;7.002;2022-07-18T04:34:27;18.90;99.90
20384;DHT22;46458;50.966;7.002;2022-07-18T04:36:53;18.90;99.90
20384;DHT22;46458;50.966;7.002;2022-07-18T04:39:18;18.80;99.90
20384;DHT22;46458;50.966;7.002;2022-07-18T04:41:44;18.80;99.90
20384;DHT22;46458;50.966;7.002;2022-07-18T04:44:10;18.80;99.90
20384;DHT22;46458;50.966;7.002;2022-07-18T04:46:36;18.80;99.90
20384;DHT22;46458;50.966;7.002;2022-07-18T04:49:01;18.80;99.90
20384;DHT22;46458;50.966;7.002;2022-07-18T04:51:30;18.80;99.90
20384;DHT22;46458;50.966;7.002;2022-07-18T04:53:55;18.80;99.90
20384;DHT22;46458;50.966;7.002;2022-07-18T04:56:22;18.80;99.90
20384;DHT22;46458;50.966;7.002;2022-07-18T04:58:47;18.80;99.90
20384;DHT22;46458;50.966;7.002;2022-07-18T05:01:13;18.90;99.90
20384;DHT22;46458;50.966;7.002;2022-07-18T05:03:39;18.90;99.90
20384;DHT22;46458;50.966;7.002;2022-07-18T05:06:05;18.90;99.90
20384;DHT22;46458;50.966;7.002;2022-07-18T05:08:33;18.90;99.90
20384;DHT22;46458;50.966;7.002;2022-07-18T05:10:59;18.90;99.90
20384;DHT22;46458;50.966;7.002;2022-07-18T05:13:24;19.00;99.90
20384;DHT22;46458;50.966;7.002;2022-07-18T05:15:50;18.90;99.90
20384;DHT22;46458;50.966;7.002;2022-07-18T05:18:19;19.00;99.90
20384;DHT22;46458;50.966;7.002;2022-07-18T05:20:45;19.00;99.90
20384;DHT22;46458;50.966;7.002;2022-07-18T05:23:13;19.00;99.90
20384;DHT22;46458;50.966;7.002;2022-07-18T05:25:42;19.00;99.90
20384;DHT22;46458;50.966;7.002;2022-07-18T05:28:07;19.10;99.90
20384;DHT22;46458;50.966;7.002;2022-07-18T05:30:33;19.10;99.90
20384;DHT22;46458;50.966;7.002;2022-07-18T05:32:58;19.20;99.90
20384;DHT22;46458;50.966;7.002;2022-07-18T05:35:24;19.20;99.90
20384;DHT22;46458;50.966;7.002;2022-07-18T05:37:53;19.30;99.90
20384;DHT22;46458;50.966;7.002;2022-07-18T05:40:18;19.30;99.90
20384;DHT22;46458;50.966;7.002;2022-07-18T05:42:44;19.30;99.90
20384;DHT22;46458;50.966;7.002;2022-07-18T05:45:11;19.50;99.90
20384;DHT22;46458;50.966;7.002;2022-07-18T05:47:37;19.40;99.90
20384;DHT22;46458;50.966;7.002;2022-07-18T05:50:03;19.50;99.90
20384;DHT22;46458;50.966;7.002;2022-07-18T05:52:30;19.60;99.90
20384;DHT22;46458;50.966;7.002;2022-07-18T05:54:56;19.60;99.90
20384;DHT22;46458;50.966;7.002;2022-07-18T05:57:21;19.70;99.90
20384;DHT22;46458;50.966;7.002;2022-07-18T05:59:47;19.70;99.90
20384;DHT22;46458;50.966;7.002;2022-07-18T06:02:15;19.80;99.90
20384;DHT22;46458;50.966;7.002;2022-07-18T06:04:41;19.70;99.90
20384;DHT22;46458;50.966;7.002;2022-07-18T06:07:06;20.00;99.90
20384;DHT22;46458;50.966;7.002;2022-07-18T06:09:32;20.10;99.90
20384;DHT22;46458;50.966;7.002;2022-07-18T06:11:59;20.20;99.90
20384;DHT22;46458;50.966;7.002;2022-07-18T06:14:27;20.20;99.90
20384;DHT22;46458;50.966;7.002;2022-07-18T06:16:52;20.30;99.90
20384;DHT22;46458;50.966;7.002;2022-07-18T06:19:18;20.40;99.90
20384;DHT22;46458;50.966;7.002;2022-07-18T06:21:47;20.40;99.90
20384;DHT22;46458;50.966;7.002;2022-07-18T06:24:13;20.80;99.90
20384;DHT22;46458;50.966;7.002;2022-07-18T06:26:41;20.60;99.90
20384;DHT22;46458;50.966;7.002;2022-07-18T06:29:07;20.60;99.90
20384;DHT22;46458;50.966;7.002;2022-07-18T06:31:33;20.60;99.90
20384;DHT22;46458;50.966;7.002;2022-07-18T06:33:58;20.70;99.90
20384;DHT22;46458;50.966;7.002;2022-07-18T06:36:24;20.80;99.90
20384;DHT22;46458;50.966;7.002;2022-07-18T06:38:50;20.90;99.90
20384;DHT22;46458;50.966;7.002;2022-07-18T06:41:17;21.00;99.30
20384;DHT22;46458;50.966;7.002;2022-07-18T06:43:46;21.10;99.00
20384;DHT22;46458;50.966;7.002;2022-07-18T06:46:11;21.10;98.70
20384;DHT22;46458;50.966;7.002;2022-07-18T06:48:41;21.20;98.70
20384;DHT22;46458;50.966;7.002;2022-07-18T06:51:07;21.20;98.70
20384;DHT22;46458;50.966;7.002;2022-07-18T06:53:34;21.30;98.60
20384;DHT22;46458;50.966;7.002;2022-07-18T06:56:00;21.40;98.50
20384;DHT22;46458;50.966;7.002;2022-07-18T06:58:28;21.40;98.20
20384;DHT22;46458;50.966;7.002;2022-07-18T07:00:56;21.50;98.90
20384;DHT22;46458;50.966;7.002;2022-07-18T07:03:22;21.60;98.50
20384;DHT22;46458;50.966;7.002;2022-07-18T07:05:47;21.60;98.40
20384;DHT22;46458;50.966;7.002;2022-07-18T07:08:13;21.70;98.30
20384;DHT22;46458;50.966;7.002;2022-07-18T07:10:39;21.70;98.10
20384;DHT22;46458;50.966;7.002;2022-07-18T07:13:05;21.80;97.90
20384;DHT22;46458;50.966;7.002;2022-07-18T07:15:30;22.00;97.70
20384;DHT22;46458;50.966;7.002;2022-07-18T07:17:56;22.00;97.80
20384;DHT22;46458;50.966;7.002;2022-07-18T07:20:25;22.00;97.90
20384;DHT22;46458;50.966;7.002;2022-07-18T07:22:52;22.10;97.90
20384;DHT22;46458;50.966;7.002;2022-07-18T07:25:23;22.20;98.20
20384;DHT22;46458;50.966;7.002;2022-07-18T07:27:49;22.30;98.20
20384;DHT22;46458;50.966;7.002;2022-07-18T07:30:15;22.30;98.10
20384;DHT22;46458;50.966;7.002;2022-07-18T07:32:43;22.40;98.00
20384;DHT22;46458;50.966;7.002;2022-07-18T07:35:11;22.50;98.50
20384;DHT22;46458;50.966;7.002;2022-07-18T07:37:38;22.60;98.50
20384;DHT22;46458;50.966;7.002;2022-07-18T07:40:05;22.70;97.80
20384;DHT22;46458;50.966;7.002;2022-07-18T07:42:31;22.80;98.10
20384;DHT22;46458;50.966;7.002;2022-07-18T07:44:56;22.90;97.60
20384;DHT22;46458;50.966;7.002;2022-07-18T07:47:22;22.90;97.30
20384;DHT22;46458;50.966;7.002;2022-07-18T07:49:48;23.00;97.70
20384;DHT22;46458;50.966;7.002;2022-07-18T07:52:13;23.10;97.60
20384;DHT22;46458;50.966;7.002;2022-07-18T07:54:45;23.30;96.90
20384;DHT22;46458;50.966;7.002;2022-07-18T07:57:11;23.30;96.50
20384;DHT22;46458;50.966;7.002;2022-07-18T07:59:40;23.40;96.20
20384;DHT22;46458;50.966;7.002;2022-07-18T08:02:07;23.50;96.70
20384;DHT22;46458;50.966;7.002;2022-07-18T08:04:32;23.50;96.60
20384;DHT22;46458;50.966;7.002;2022-07-18T08:06:58;23.60;96.00
20384;DHT22;46458;50.966;7.002;2022-07-18T08:09:23;23.70;95.80
20384;DHT22;46458;50.966;7.002;2022-07-18T08:11:52;23.90;96.10
20384;DHT22;46458;50.966;7.002;2022-07-18T08:14:17;24.00;96.60
20384;DHT22;46458;50.966;7.002;2022-07-18T08:16:43;23.90;96.10
20384;DHT22;46458;50.966;7.002;2022-07-18T08:19:09;24.10;96.00
20384;DHT22;46458;50.966;7.002;2022-07-18T08:21:34;24.20;96.10
20384;DHT22;46458;50.966;7.002;2022-07-18T08:24:00;24.30;95.80
20384;DHT22;46458;50.966;7.002;2022-07-18T08:26:26;24.50;94.70
20384;DHT22;46458;50.966;7.002;2022-07-18T08:28:52;24.60;95.00
20384;DHT22;46458;50.966;7.002;2022-07-18T08:31:18;24.60;95.00
20384;DHT22;46458;50.966;7.002;2022-07-18T08:33:44;24.70;95.00
20384;DHT22;46458;50.966;7.002;2022-07-18T08:36:10;24.70;94.90
20384;DHT22;46458;50.966;7.002;2022-07-18T08:38:36;24.80;94.90
20384;DHT22;46458;50.966;7.002;2022-07-18T08:41:03;24.90;94.80
20384;DHT22;46458;50.966;7.002;2022-07-18T08:43:29;25.00;94.80
20384;DHT22;46458;50.966;7.002;2022-07-18T08:45:57;25.10;95.00
20384;DHT22;46458;50.966;7.002;2022-07-18T08:48:26;25.20;95.00
20384;DHT22;46458;50.966;7.002;2022-07-18T08:50:52;25.40;95.10
20384;DHT22;46458;50.966;7.002;2022-07-18T08:53:19;25.50;95.40
20384;DHT22;46458;50.966;7.002;2022-07-18T08:55:45;25.70;94.10
20384;DHT22;46458;50.966;7.002;2022-07-18T08:58:11;25.80;94.40
20384;DHT22;46458;50.966;7.002;2022-07-18T09:00:41;26.00;94.10
20384;DHT22;46458;50.966;7.002;2022-07-18T09:03:07;26.40;93.00
20384;DHT22;46458;50.966;7.002;2022-07-18T09:05:33;26.90;93.00
20384;DHT22;46458;50.966;7.002;2022-07-18T09:08:16;27.20;93.00
20384;DHT22;46458;50.966;7.002;2022-07-18T09:10:55;27.80;92.40
20384;DHT22;46458;50.966;7.002;2022-07-18T09:13:27;28.30;91.30
20384;DHT22;46458;50.966;7.002;2022-07-18T09:18:30;29.30;91.40
20384;DHT22;46458;50.966;7.002;2022-07-18T09:21:00;30.10;90.00
20384;DHT22;46458;50.966;7.002;2022-07-18T09:23:29;30.00;90.60
20384;DHT22;46458;50.966;7.002;2022-07-18T09:25:54;30.40;89.00
20384;DHT22;46458;50.966;7.002;2022-07-18T09:28:20;30.40;86.60
20384;DHT22;46458;50.966;7.002;2022-07-18T09:30:48;30.20;87.60
20384;DHT22;46458;50.966;7.002;2022-07-18T09:33:14;30.00;87.70
20384;DHT22;46458;50.966;7.002;2022-07-18T09:35:48;29.90;89.40
20384;DHT22;46458;50.966;7.002;2022-07-18T09:38:18;29.90;87.00
20384;DHT22;46458;50.966;7.002;2022-07-18T09:41:06;29.80;85.50
20384;DHT22;46458;50.966;7.002;2022-07-18T09:43:37;29.90;89.10
20384;DHT22;46458;50.966;7.002;2022-07-18T09:46:07;29.90;88.20
20384;DHT22;46458;50.966;7.002;2022-07-18T09:48:34;30.10;86.10
20384;DHT22;46458;50.966;7.002;2022-07-18T09:51:07;30.20;85.40
20384;DHT22;46458;50.966;7.002;2022-07-18T09:53:37;30.30;86.70
20384;DHT22;46458;50.966;7.002;2022-07-18T09:58:34;30.70;82.70
20384;DHT22;46458;50.966;7.002;2022-07-18T10:01:01;30.90;85.60
20384;DHT22;46458;50.966;7.002;2022-07-18T10:03:28;31.00;83.80
20384;DHT22;46458;50.966;7.002;2022-07-18T10:05:55;31.30;82.90
20384;DHT22;46458;50.966;7.002;2022-07-18T10:08:23;31.40;80.10
20384;DHT22;46458;50.966;7.002;2022-07-18T10:10:51;31.60;78.50
20384;DHT22;46458;50.966;7.002;2022-07-18T10:13:18;31.80;80.90
20384;DHT22;46458;50.966;7.002;2022-07-18T10:15:46;31.90;83.80
20384;DHT22;46458;50.966;7.002;2022-07-18T10:18:14;32.00;81.90
20384;DHT22;46458;50.966;7.002;2022-07-18T10:20:43;32.30;80.30
20384;DHT22;46458;50.966;7.002;2022-07-18T10:25:41;32.90;75.40
20384;DHT22;46458;50.966;7.002;2022-07-18T10:28:09;33.10;78.10
20384;DHT22;46458;50.966;7.002;2022-07-18T10:30:43;33.50;75.20
20384;DHT22;46458;50.966;7.002;2022-07-18T10:33:36;33.90;74.00
20384;DHT22;46458;50.966;7.002;2022-07-18T10:36:03;33.70;75.40
20384;DHT22;46458;50.966;7.002;2022-07-18T10:38:28;33.70;75.10
20384;DHT22;46458;50.966;7.002;2022-07-18T10:41:13;34.20;76.70
20384;DHT22;46458;50.966;7.002;2022-07-18T10:43:43;34.50;73.50
20384;DHT22;46458;50.966;7.002;2022-07-18T10:46:13;33.70;75.80
20384;DHT22;46458;50.966;7.002;2022-07-18T10:51:12;32.50;73.80
20384;DHT22;46458;50.966;7.002;2022-07-18T10:54:03;32.20;76.20
20384;DHT22;46458;50.966;7.002;2022-07-18T10:59:18;33.20;72.20
20384;DHT22;46458;50.966;7.002;2022-07-18T11:01:51;32.90;72.80
20384;DHT22;46458;50.966;7.002;2022-07-18T11:07:10;34.80;70.10
20384;DHT22;46458;50.966;7.002;2022-07-18T11:09:47;36.50;68.70
20384;DHT22;46458;50.966;7.002;2022-07-18T11:12:31;40.20;64.90
20384;DHT22;46458;50.966;7.002;2022-07-18T11:20:41;37.60;61.50
20384;DHT22;46458;50.966;7.002;2022-07-18T11:25:45;34.30;65.50
20384;DHT22;46458;50.966;7.002;2022-07-18T11:28:13;33.70;66.70
20384;DHT22;46458;50.966;7.002;2022-07-18T11:30:40;33.20;65.80
20384;DHT22;46458;50.966;7.002;2022-07-18T11:33:07;33.90;67.00
20384;DHT22;46458;50.966;7.002;2022-07-18T11:35:45;34.20;64.90
20384;DHT22;46458;50.966;7.002;2022-07-18T11:38:13;33.50;65.50
20384;DHT22;46458;50.966;7.002;2022-07-18T11:40:52;33.00;68.00
20384;DHT22;46458;50.966;7.002;2022-07-18T11:43:24;32.60;68.60
20384;DHT22;46458;50.966;7.002;2022-07-18T11:46:01;32.40;67.00
20384;DHT22;46458;50.966;7.002;2022-07-18T11:48:27;32.10;68.60
20384;DHT22;46458;50.966;7.002;2022-07-18T11:50:53;32.10;69.50
20384;DHT22;46458;50.966;7.002;2022-07-18T11:53:19;32.10;69.50
20384;DHT22;46458;50.966;7.002;2022-07-18T11:55:44;32.20;68.30
20384;DHT22;46458;50.966;7.002;2022-07-18T11:58:14;32.40;69.60
20384;DHT22;46458;50.966;7.002;2022-07-18T12:00:43;32.60;68.40
20384;DHT22;46458;50.966;7.002;2022-07-18T12:03:14;32.60;68.60
20384;DHT22;46458;50.966;7.002;2022-07-18T12:05:43;32.50;68.80
20384;DHT22;46458;50.966;7.002;2022-07-18T12:11:05;32.70;67.80
20384;DHT22;46458;50.966;7.002;2022-07-18T12:16:36;32.30;68.60
20384;DHT22;46458;50.966;7.002;2022-07-18T12:19:09;32.10;69.30
20384;DHT22;46458;50.966;7.002;2022-07-18T12:30:11;31.70;71.50
20384;DHT22;46458;50.966;7.002;2022-07-18T12:32:54;31.80;71.80
20384;DHT22;46458;50.966;7.002;2022-07-18T12:38:13;31.60;71.20
20384;DHT22;46458;50.966;7.002;2022-07-18T12:41:00;31.60;72.90
20384;DHT22;46458;50.966;7.002;2022-07-18T12:43:30;31.60;71.50
20384;DHT22;46458;50.966;7.002;2022-07-18T12:45:58;31.50;71.60
20384;DHT22;46458;50.966;7.002;2022-07-18T12:48:25;31.50;71.40
20384;DHT22;46458;50.966;7.002;2022-07-18T12:51:00;31.40;73.00
20384;DHT22;46458;50.966;7.002;2022-07-18T12:53:27;31.60;72.30
20384;DHT22;46458;50.966;7.002;2022-07-18T12:55:53;31.50;73.10
20384;DHT22;46458;50.966;7.002;2022-07-18T12:58:20;31.60;72.90
20384;DHT22;46458;50.966;7.002;2022-07-18T13:00:46;31.60;72.80
20384;DHT22;46458;50.966;7.002;2022-07-18T13:03:12;31.80;73.00
20384;DHT22;46458;50.966;7.002;2022-07-18T13:05:38;31.80;72.20
20384;DHT22;46458;50.966;7.002;2022-07-18T13:08:04;31.90;70.70
20384;DHT22;46458;50.966;7.002;2022-07-18T13:10:32;32.20;69.90
20384;DHT22;46458;50.966;7.002;2022-07-18T13:12:58;32.50;70.00
20384;DHT22;46458;50.966;7.002;2022-07-18T13:15:26;32.60;69.60
20384;DHT22;46458;50.966;7.002;2022-07-18T13:17:51;32.70;70.30
20384;DHT22;46458;50.966;7.002;2022-07-18T13:20:17;32.80;70.50
20384;DHT22;46458;50.966;7.002;2022-07-18T13:22:43;32.80;71.00
20384;DHT22;46458;50.966;7.002;2022-07-18T13:25:09;32.80;70.20
20384;DHT22;46458;50.966;7.002;2022-07-18T13:27:38;32.80;69.90
20384;DHT22;46458;50.966;7.002;2022-07-18T13:30:06;32.60;71.30
20384;DHT22;46458;50.966;7.002;2022-07-18T13:32:32;32.60;71.20
20384;DHT22;46458;50.966;7.002;2022-07-18T13:34:58;32.60;70.80
20384;DHT22;46458;50.966;7.002;2022-07-18T13:37:24;32.50;72.00
20384;DHT22;46458;50.966;7.002;2022-07-18T13:39:50;32.50;72.10
20384;DHT22;46458;50.966;7.002;2022-07-18T13:42:18;32.50;71.80
20384;DHT22;46458;50.966;7.002;2022-07-18T13:44:44;32.70;70.30
20384;DHT22;46458;50.966;7.002;2022-07-18T13:47:11;32.80;70.80
20384;DHT22;46458;50.966;7.002;2022-07-18T13:49:37;32.80;72.40
20384;DHT22;46458;50.966;7.002;2022-07-18T13:52:02;32.70;72.60
20384;DHT22;46458;50.966;7.002;2022-07-18T13:54:28;32.80;71.40
20384;DHT22;46458;50.966;7.002;2022-07-18T13:56:54;33.20;70.60
20384;DHT22;46458;50.966;7.002;2022-07-18T13:59:19;33.80;70.50
20384;DHT22;46458;50.966;7.002;2022-07-18T14:01:45;34.40;69.00
20384;DHT22;46458;50.966;7.002;2022-07-18T14:04:10;34.80;69.20
20384;DHT22;46458;50.966;7.002;2022-07-18T14:06:36;35.10;69.60
20384;DHT22;46458;50.966;7.002;2022-07-18T14:09:04;35.00;68.80
20384;DHT22;46458;50.966;7.002;2022-07-18T14:11:33;35.00;69.40
20384;DHT22;46458;50.966;7.002;2022-07-18T14:14:03;35.20;68.70
20384;DHT22;46458;50.966;7.002;2022-07-18T14:16:29;35.40;69.30
20384;DHT22;46458;50.966;7.002;2022-07-18T14:18:55;35.50;66.70
20384;DHT22;46458;50.966;7.002;2022-07-18T14:21:21;35.60;65.60
20384;DHT22;46458;50.966;7.002;2022-07-18T14:23:46;35.60;66.60
20384;DHT22;46458;50.966;7.002;2022-07-18T14:26:12;35.60;67.60
20384;DHT22;46458;50.966;7.002;2022-07-18T14:28:37;35.70;67.10
20384;DHT22;46458;50.966;7.002;2022-07-18T14:31:03;35.80;67.30
20384;DHT22;46458;50.966;7.002;2022-07-18T14:33:29;35.90;67.30
20384;DHT22;46458;50.966;7.002;2022-07-18T14:35:54;36.00;67.80
20384;DHT22;46458;50.966;7.002;2022-07-18T14:38:20;36.20;67.50
20384;DHT22;46458;50.966;7.002;2022-07-18T14:40:46;36.30;67.40
20384;DHT22;46458;50.966;7.002;2022-07-18T14:43:11;36.40;66.00
20384;DHT22;46458;50.966;7.002;2022-07-18T14:45:41;36.50;66.60
20384;DHT22;46458;50.966;7.002;2022-07-18T14:48:06;36.60;66.20
20384;DHT22;46458;50.966;7.002;2022-07-18T14:50:34;36.60;65.40
20384;DHT22;46458;50.966;7.002;2022-07-18T14:53:00;36.80;66.60
20384;DHT22;46458;50.966;7.002;2022-07-18T14:55:29;36.90;65.00
20384;DHT22;46458;50.966;7.002;2022-07-18T14:57:54;36.90;65.60
20384;DHT22;46458;50.966;7.002;2022-07-18T15:00:20;36.90;65.20
20384;DHT22;46458;50.966;7.002;2022-07-18T15:02:46;36.90;63.60
20384;DHT22;46458;50.966;7.002;2022-07-18T15:05:11;36.80;64.60
20384;DHT22;46458;50.966;7.002;2022-07-18T15:07:40;36.80;64.80
20384;DHT22;46458;50.966;7.002;2022-07-18T15:10:06;36.80;65.80
20384;DHT22;46458;50.966;7.002;2022-07-18T15:12:35;36.60;65.50
20384;DHT22;46458;50.966;7.002;2022-07-18T15:15:01;36.50;66.70
20384;DHT22;46458;50.966;7.002;2022-07-18T15:17:26;36.30;66.10
20384;DHT22;46458;50.966;7.002;2022-07-18T15:19:55;36.30;65.70
20384;DHT22;46458;50.966;7.002;2022-07-18T15:22:20;36.40;66.50
20384;DHT22;46458;50.966;7.002;2022-07-18T15:24:46;36.40;66.00
20384;DHT22;46458;50.966;7.002;2022-07-18T15:27:11;36.40;64.70
20384;DHT22;46458;50.966;7.002;2022-07-18T15:29:37;36.30;63.90
20384;DHT22;46458;50.966;7.002;2022-07-18T15:32:03;36.30;66.40
20384;DHT22;46458;50.966;7.002;2022-07-18T15:34:36;36.30;63.30
20384;DHT22;46458;50.966;7.002;2022-07-18T15:37:02;36.20;66.30
20384;DHT22;46458;50.966;7.002;2022-07-18T15:39:28;36.00;66.40
20384;DHT22;46458;50.966;7.002;2022-07-18T15:41:54;35.90;65.00
20384;DHT22;46458;50.966;7.002;2022-07-18T15:44:19;35.90;63.60
20384;DHT22;46458;50.966;7.002;2022-07-18T15:46:45;35.90;64.70
20384;DHT22;46458;50.966;7.002;2022-07-18T15:49:10;35.80;64.80
20384;DHT22;46458;50.966;7.002;2022-07-18T15:51:36;35.80;64.50
20384;DHT22;46458;50.966;7.002;2022-07-18T15:54:03;35.80;65.30
20384;DHT22;46458;50.966;7.002;2022-07-18T15:56:29;35.70;66.10
20384;DHT22;46458;50.966;7.002;2022-07-18T15:58:55;35.70;65.40
20384;DHT22;46458;50.966;7.002;2022-07-18T16:01:20;35.70;65.80
20384;DHT22;46458;50.966;7.002;2022-07-18T16:03:46;35.70;65.90
20384;DHT22;46458;50.966;7.002;2022-07-18T16:06:12;35.70;66.30
20384;DHT22;46458;50.966;7.002;2022-07-18T16:08:38;35.70;66.40
20384;DHT22;46458;50.966;7.002;2022-07-18T16:11:04;35.70;65.90
20384;DHT22;46458;50.966;7.002;2022-07-18T16:13:29;35.70;66.80